createdAt,value
2022-08-16T00:02:22.932Z,20.16
2022-08-16T00:04:50.963Z,19.92
2022-08-16T00:07:17.818Z,20.09
2022-08-16T00:09:44.203Z,20.00
2022-08-16T00:12:10.732Z,20.08
2022-08-16T00:14:37.190Z,20.06
2022-08-16T00:17:16.058Z,19.80
2022-08-16T00:19:45.692Z,19.96
2022-08-16T00:22:15.481Z,19.93
2022-08-16T00:24:44.626Z,19.75
2022-08-16T00:27:12.892Z,20.08
2022-08-16T00:29:39.325Z,19.82
2022-08-16T00:32:07.977Z,19.97
2022-08-16T00:34:44.781Z,20.11
2022-08-16T00:37:20.257Z,19.87
2022-08-16T00:39:57.685Z,19.89
2022-08-16T00:42:30.750Z,19.92
2022-08-16T00:45:14.081Z,19.84
2022-08-16T00:47:49.628Z,19.90
2022-08-16T00:50:21.294Z,19.74
2022-08-16T00:52:50.822Z,19.88
2022-08-16T00:55:19.256Z,19.78
2022-08-16T00:58:00.117Z,19.71
2022-08-16T01:00:29.655Z,19.62
2022-08-16T01:02:57.307Z,19.59
2022-08-16T01:05:25.358Z,19.75
2022-08-16T01:07:53.563Z,19.70
2022-08-16T01:10:32.382Z,19.58
2022-08-16T01:13:21.905Z,19.34
2022-08-16T01:16:01.066Z,19.40
2022-08-16T01:18:41.546Z,19.27
2022-08-16T01:21:33.564Z,19.30
2022-08-16T01:24:52.251Z,19.43
2022-08-16T01:27:25.804Z,19.36
2022-08-16T01:30:19.248Z,19.48
2022-08-16T01:33:01.538Z,19.42
2022-08-16T01:35:39.649Z,19.37
2022-08-16T01:38:28.534Z,19.34
2022-08-16T01:41:02.497Z,19.45
2022-08-16T01:43:31.160Z,19.48
2022-08-16T01:46:00.098Z,19.37
2022-08-16T01:48:47.007Z,19.30
2022-08-16T01:51:16.741Z,19.35
2022-08-16T01:53:43.785Z,19.29
2022-08-16T01:56:24.362Z,19.29
2022-08-16T01:58:54.628Z,19.26
2022-08-16T02:01:21.320Z,19.26
2022-08-16T02:03:50.464Z,19.20
2022-08-16T02:06:33.707Z,18.94
2022-08-16T02:09:01.905Z,19.18
2022-08-16T02:11:48.439Z,19.15
2022-08-16T02:14:21.213Z,19.04
2022-08-16T02:16:48.849Z,19.13
2022-08-16T02:19:18.165Z,19.22
2022-08-16T02:22:09.078Z,18.88
2022-08-16T02:24:42.000Z,19.13
2022-08-16T02:27:09.937Z,19.30
2022-08-16T02:29:36.707Z,19.09
2022-08-16T02:32:49.829Z,19.25
2022-08-16T02:34:51.009Z,19.27
2022-08-16T02:37:22.772Z,19.17
2022-08-16T02:39:54.126Z,19.13
2022-08-16T02:42:20.959Z,19.32
2022-08-16T02:44:47.385Z,19.22
2022-08-16T02:47:24.866Z,19.32
2022-08-16T02:50:52.315Z,19.15
2022-08-16T02:52:38.748Z,19.18
2022-08-16T02:55:05.854Z,19.09
2022-08-16T02:57:32.754Z,18.93
2022-08-16T03:00:03.806Z,19.17
2022-08-16T03:02:47.343Z,19.04
2022-08-16T03:05:23.428Z,19.18
2022-08-16T03:07:50.956Z,19.18
2022-08-16T03:10:19.529Z,19.17
2022-08-16T03:12:56.457Z,19.21
2022-08-16T03:15:23.057Z,19.11
2022-08-16T03:17:53.499Z,19.08
2022-08-16T03:20:20.716Z,18.83
2022-08-16T03:22:58.428Z,18.99
2022-08-16T03:25:25.145Z,18.96
2022-08-16T03:28:09.252Z,18.83
2022-08-16T03:30:37.904Z,18.98
2022-08-16T03:33:05.054Z,18.96
2022-08-16T03:35:34.774Z,18.80
2022-08-16T03:38:04.820Z,18.90
2022-08-16T03:40:51.757Z,18.93
2022-08-16T03:43:19.735Z,18.66
2022-08-16T03:45:47.439Z,19.05
2022-08-16T03:48:15.175Z,18.93
2022-08-16T03:51:00.024Z,18.91
2022-08-16T03:53:37.950Z,18.60
2022-08-16T03:56:07.256Z,18.75
2022-08-16T03:58:34.496Z,18.88
2022-08-16T04:01:04.465Z,18.96
2022-08-16T04:03:31.460Z,18.71
2022-08-16T04:05:57.925Z,18.64
2022-08-16T04:08:27.083Z,18.68
2022-08-16T04:10:55.130Z,18.80
2022-08-16T04:14:01.748Z,18.77
2022-08-16T04:16:27.446Z,18.88
2022-08-16T04:19:01.396Z,18.71
2022-08-16T04:21:34.591Z,18.84
2022-08-16T04:24:01.653Z,18.86
2022-08-16T04:26:30.720Z,18.74
2022-08-16T04:29:15.052Z,18.68
2022-08-16T04:31:56.785Z,18.90
2022-08-16T04:34:27.508Z,18.80
2022-08-16T04:36:54.569Z,18.66
2022-08-16T04:39:23.842Z,18.77
2022-08-16T04:41:56.820Z,18.60
2022-08-16T04:44:52.558Z,18.69
2022-08-16T04:47:21.243Z,18.59
2022-08-16T04:49:50.899Z,18.70
2022-08-16T04:52:33.769Z,18.53
2022-08-16T04:55:17.273Z,18.58
2022-08-16T04:57:46.012Z,18.76
2022-08-16T05:00:31.952Z,18.68
2022-08-16T05:03:10.785Z,18.61
2022-08-16T05:05:55.588Z,18.62
2022-08-16T05:08:29.581Z,18.82
2022-08-16T05:11:10.561Z,18.78
2022-08-16T05:13:40.843Z,18.85
2022-08-16T05:16:16.641Z,18.72
2022-08-16T05:18:47.834Z,18.84
2022-08-16T05:21:14.246Z,18.68
2022-08-16T05:23:40.845Z,18.96
2022-08-16T05:26:19.595Z,19.03
2022-08-16T05:28:55.557Z,18.66
2022-08-16T05:31:23.103Z,19.01
2022-08-16T05:33:53.257Z,18.93
2022-08-16T05:36:21.150Z,18.96
2022-08-16T05:38:48.977Z,18.99
2022-08-16T05:41:16.911Z,18.81
2022-08-16T05:43:47.643Z,18.52
2022-08-16T05:46:28.599Z,18.87
2022-08-16T05:49:00.100Z,18.73
2022-08-16T05:51:35.354Z,18.74
2022-08-16T05:54:05.712Z,18.72
2022-08-16T05:56:32.338Z,18.95
2022-08-16T05:59:00.673Z,18.82
2022-08-16T06:01:27.895Z,18.76
2022-08-16T06:03:59.343Z,18.90
2022-08-16T06:06:29.053Z,18.97
2022-08-16T06:08:55.712Z,18.89
2022-08-16T06:11:22.511Z,19.17
2022-08-16T06:13:52.119Z,19.18
2022-08-16T06:16:22.021Z,19.27
2022-08-16T06:18:53.605Z,19.23
2022-08-16T06:21:23.795Z,19.45
2022-08-16T06:23:54.064Z,19.66
2022-08-16T06:26:21.376Z,19.68
2022-08-16T06:28:47.793Z,19.67
2022-08-16T06:31:16.036Z,19.63
2022-08-16T06:33:44.985Z,19.77
2022-08-16T06:36:14.159Z,19.94
2022-08-16T06:38:55.767Z,20.03
2022-08-16T06:41:24.307Z,19.82
2022-08-16T06:43:54.410Z,20.12
2022-08-16T06:46:33.965Z,20.07
2022-08-16T06:49:01.935Z,20.10
2022-08-16T06:51:45.195Z,20.22
2022-08-16T06:54:14.439Z,20.35
2022-08-16T06:56:42.354Z,20.44
2022-08-16T06:59:10.167Z,20.45
2022-08-16T07:01:45.229Z,20.59
2022-08-16T07:04:31.852Z,20.70
2022-08-16T07:07:00.475Z,20.84
2022-08-16T07:09:29.739Z,20.83
2022-08-16T07:12:03.200Z,21.00
2022-08-16T07:14:30.678Z,21.04
2022-08-16T07:16:58.967Z,21.17
2022-08-16T07:20:01.494Z,21.25
2022-08-16T07:22:38.848Z,21.36
2022-08-16T07:25:00.233Z,21.35
2022-08-16T07:27:27.082Z,21.29
2022-08-16T07:29:55.721Z,21.63
2022-08-16T07:32:29.688Z,21.67
2022-08-16T07:34:57.932Z,21.70
2022-08-16T07:37:24.474Z,21.97
2022-08-16T07:39:51.530Z,22.12
2022-08-16T07:42:20.405Z,22.34
2022-08-16T07:44:55.998Z,22.29
2022-08-16T07:47:24.447Z,22.53
2022-08-16T07:49:58.027Z,22.61
2022-08-16T07:52:24.842Z,22.76
2022-08-16T07:54:57.079Z,22.90
2022-08-16T07:57:24.560Z,22.74
2022-08-16T07:59:51.375Z,22.80
2022-08-16T08:02:20.351Z,22.95
2022-08-16T08:04:47.722Z,23.03
2022-08-16T08:07:14.716Z,23.31
2022-08-16T08:09:43.258Z,23.34
2022-08-16T08:12:10.321Z,23.36
2022-08-16T08:14:57.061Z,23.41
2022-08-16T08:17:23.497Z,23.43
2022-08-16T08:19:53.216Z,23.34
2022-08-16T08:22:22.204Z,23.50
2022-08-16T08:24:49.133Z,23.75
2022-08-16T08:27:22.966Z,23.92
2022-08-16T08:30:50.239Z,23.99
2022-08-16T08:32:57.970Z,24.27
2022-08-16T08:35:26.950Z,24.30
2022-08-16T08:37:56.531Z,24.11
2022-08-16T08:40:26.728Z,24.41
2022-08-16T08:43:00.824Z,24.39
2022-08-16T08:45:48.522Z,24.68
2022-08-16T08:48:33.372Z,24.79
2022-08-16T08:51:03.760Z,24.79
2022-08-16T08:53:30.831Z,24.58
2022-08-16T08:55:59.188Z,24.87
2022-08-16T08:58:34.218Z,24.76
2022-08-16T09:01:01.678Z,24.89
2022-08-16T09:03:28.732Z,25.17
2022-08-16T09:05:59.414Z,25.09
2022-08-16T09:08:27.536Z,25.28
2022-08-16T09:11:02.051Z,25.17
2022-08-16T09:13:32.789Z,25.29
2022-08-16T09:15:59.687Z,25.16
2022-08-16T09:18:35.668Z,25.77
2022-08-16T09:21:04.385Z,25.81
2022-08-16T09:23:36.664Z,26.32
2022-08-16T09:26:43.965Z,26.69
2022-08-16T09:29:15.825Z,27.03
2022-08-16T09:31:41.954Z,27.56
2022-08-16T09:34:09.219Z,28.27
2022-08-16T09:36:37.299Z,28.32
2022-08-16T09:39:15.861Z,28.74
2022-08-16T09:41:43.371Z,28.47
2022-08-16T09:45:12.161Z,29.10
2022-08-16T09:47:10.410Z,29.36
2022-08-16T09:49:37.548Z,29.59
2022-08-16T09:52:07.330Z,28.94
2022-08-16T09:54:36.852Z,28.74
2022-08-16T09:57:03.638Z,28.31
2022-08-16T09:59:31.300Z,28.08
2022-08-16T10:02:25.997Z,27.47
2022-08-16T10:04:54.680Z,28.31
2022-08-16T10:07:21.568Z,28.57
2022-08-16T10:09:55.526Z,28.75
2022-08-16T10:12:45.992Z,28.94
2022-08-16T10:15:21.020Z,28.84
2022-08-16T10:18:00.671Z,28.25
2022-08-16T10:20:30.301Z,29.00
2022-08-16T10:23:02.086Z,29.65
2022-08-16T10:27:17.190Z,29.13
2022-08-16T10:28:28.141Z,29.21
2022-08-16T10:30:58.784Z,29.14
2022-08-16T10:33:27.146Z,28.79
2022-08-16T10:35:57.683Z,28.44
2022-08-16T10:38:28.296Z,28.09
2022-08-16T10:40:54.936Z,27.67
2022-08-16T10:43:21.399Z,28.19
2022-08-16T10:45:59.967Z,27.90
2022-08-16T10:48:28.640Z,27.89
2022-08-16T10:50:58.617Z,27.43
2022-08-16T10:53:32.436Z,27.04
2022-08-16T10:56:06.370Z,27.39
2022-08-16T10:58:51.996Z,27.60
2022-08-16T11:01:40.122Z,27.47
2022-08-16T11:05:04.707Z,27.82
2022-08-16T11:07:43.067Z,27.92
2022-08-16T11:09:43.219Z,27.87
2022-08-16T11:12:14.024Z,27.39
2022-08-16T11:15:11.227Z,27.58
2022-08-16T11:17:28.305Z,27.34
2022-08-16T11:20:01.170Z,27.31
2022-08-16T11:22:48.453Z,27.36
2022-08-16T11:28:08.949Z,27.69
2022-08-16T11:30:39.145Z,27.66
2022-08-16T11:33:06.845Z,27.35
2022-08-16T11:38:46.775Z,28.21
2022-08-16T11:41:09.580Z,28.29
2022-08-16T11:43:37.951Z,28.44
2022-08-16T11:46:45.142Z,28.66
2022-08-16T11:48:56.135Z,28.82
2022-08-16T11:51:22.640Z,28.75
2022-08-16T11:53:49.103Z,28.37
2022-08-16T11:56:15.958Z,28.22
2022-08-16T11:58:51.585Z,28.47
2022-08-16T12:01:18.293Z,28.38
2022-08-16T12:03:56.971Z,28.33
2022-08-16T12:06:25.083Z,28.24
2022-08-16T12:08:53.189Z,28.48
2022-08-16T12:11:20.758Z,28.37
2022-08-16T12:13:49.157Z,28.08
2022-08-16T12:16:20.601Z,28.14
2022-08-16T12:21:18.955Z,27.94
2022-08-16T12:23:46.116Z,28.18
2022-08-16T12:26:13.051Z,28.02
2022-08-16T12:28:54.290Z,28.24
2022-08-16T12:31:22.873Z,28.47
2022-08-16T12:33:49.322Z,28.41
2022-08-16T12:36:20.957Z,28.30
2022-08-16T12:38:48.358Z,27.85
2022-08-16T12:41:24.486Z,27.81
2022-08-16T12:43:52.445Z,27.74
2022-08-16T12:46:23.332Z,27.71
2022-08-16T12:48:58.692Z,27.63
2022-08-16T12:53:54.891Z,27.17
2022-08-16T12:56:25.296Z,27.12
2022-08-16T12:58:52.591Z,27.56
2022-08-16T13:01:28.892Z,27.55
2022-08-16T13:04:20.306Z,27.79
2022-08-16T13:06:45.112Z,27.30
2022-08-16T13:09:25.248Z,27.55
2022-08-16T13:12:15.852Z,27.41
2022-08-16T13:14:43.922Z,27.53
2022-08-16T13:17:17.131Z,27.70
2022-08-16T13:22:32.507Z,27.69
2022-08-16T13:24:59.612Z,27.64
2022-08-16T13:28:01.589Z,27.84
2022-08-16T13:30:35.534Z,28.01
2022-08-16T13:33:00.423Z,28.24
2022-08-16T13:35:27.538Z,28.70
2022-08-16T13:38:01.182Z,28.80
2022-08-16T13:40:29.655Z,29.05
2022-08-16T13:42:56.333Z,29.65
2022-08-16T13:45:23.106Z,29.54
2022-08-16T13:47:52.910Z,30.03
2022-08-16T13:50:30.937Z,30.08
2022-08-16T13:52:58.078Z,30.41
2022-08-16T13:55:24.703Z,30.14
2022-08-16T13:57:53.679Z,30.04
2022-08-16T14:00:37.589Z,29.51
2022-08-16T14:03:04.176Z,29.83
2022-08-16T14:05:30.709Z,29.77
2022-08-16T14:07:57.250Z,29.67
2022-08-16T14:10:23.674Z,29.61
2022-08-16T14:12:51.165Z,29.52
2022-08-16T14:15:20.353Z,29.52
2022-08-16T14:18:15.610Z,29.61
2022-08-16T14:20:33.619Z,28.95
2022-08-16T14:23:00.161Z,29.06
2022-08-16T14:25:27.144Z,28.72
2022-08-16T14:27:55.387Z,29.11
2022-08-16T14:30:25.381Z,28.94
2022-08-16T14:32:52.977Z,28.94
2022-08-16T14:35:36.285Z,28.67
2022-08-16T14:38:17.914Z,28.71
2022-08-16T14:40:47.193Z,28.92
2022-08-16T14:43:19.128Z,28.91
2022-08-16T14:45:46.997Z,28.78
2022-08-16T14:48:21.517Z,28.43
2022-08-16T14:50:51.942Z,28.30
2022-08-16T14:53:22.639Z,28.23
2022-08-16T14:55:49.154Z,28.40
2022-08-16T14:58:19.360Z,28.24
2022-08-16T15:00:47.072Z,28.20
2022-08-16T15:03:13.711Z,28.28
2022-08-16T15:05:41.929Z,28.37
2022-08-16T15:08:09.933Z,28.13
2022-08-16T15:10:42.969Z,28.43
2022-08-16T15:13:13.478Z,28.44
2022-08-16T15:15:44.993Z,28.28
2022-08-16T15:18:27.909Z,28.33
2022-08-16T15:20:54.692Z,28.28
2022-08-16T15:23:21.154Z,28.25
2022-08-16T15:25:58.637Z,28.30
2022-08-16T15:28:32.167Z,28.28
2022-08-16T15:31:03.052Z,28.28
2022-08-16T15:33:35.081Z,28.13
2022-08-16T15:36:02.471Z,27.95
2022-08-16T15:38:58.059Z,28.06
2022-08-16T15:41:34.121Z,27.81
2022-08-16T15:44:10.493Z,27.86
2022-08-16T15:46:54.783Z,28.06
2022-08-16T15:49:34.675Z,28.13
2022-08-16T15:52:12.495Z,27.97
2022-08-16T15:54:53.342Z,27.68
2022-08-16T15:57:22.193Z,28.02
2022-08-16T15:59:55.556Z,27.62
2022-08-16T16:02:29.434Z,28.07
2022-08-16T16:05:01.067Z,27.69
2022-08-16T16:07:33.891Z,27.48
2022-08-16T16:10:03.686Z,27.72
2022-08-16T16:12:50.799Z,27.94
2022-08-16T16:15:18.371Z,28.03
2022-08-16T16:17:46.887Z,28.29
2022-08-16T16:20:20.403Z,28.70
2022-08-16T16:22:47.725Z,28.85
2022-08-16T16:25:15.989Z,29.42
2022-08-16T16:27:44.013Z,29.56
2022-08-16T16:30:37.304Z,30.00
2022-08-16T16:32:59.434Z,30.09
2022-08-16T16:35:28.266Z,30.71
2022-08-16T16:37:59.674Z,30.48
2022-08-16T16:40:28.968Z,30.34
2022-08-16T16:43:00.029Z,30.06
2022-08-16T16:45:34.570Z,29.76
2022-08-16T16:48:11.775Z,29.37
2022-08-16T16:50:40.382Z,29.28
2022-08-16T16:53:16.717Z,29.61
2022-08-16T16:55:44.106Z,29.36
2022-08-16T16:58:36.663Z,29.44
2022-08-16T17:01:04.678Z,29.22
2022-08-16T17:03:32.659Z,29.03
2022-08-16T17:06:09.314Z,28.31
2022-08-16T17:08:41.380Z,28.45
2022-08-16T17:11:09.633Z,28.26
2022-08-16T17:13:36.882Z,28.11
2022-08-16T17:16:04.907Z,27.86
2022-08-16T17:19:15.057Z,27.79
2022-08-16T17:21:18.643Z,27.76
2022-08-16T17:23:59.226Z,27.56
2022-08-16T17:26:29.963Z,27.24
2022-08-16T17:29:02.550Z,27.35
2022-08-16T17:31:43.261Z,26.89
2022-08-16T17:34:28.859Z,26.83
2022-08-16T17:39:27.264Z,26.50
2022-08-16T17:39:53.411Z,26.87
2022-08-16T17:42:27.069Z,26.74
2022-08-16T17:44:54.687Z,26.70
2022-08-16T17:47:21.880Z,26.60
2022-08-16T17:49:48.491Z,26.72
2022-08-16T17:52:15.291Z,26.70
2022-08-16T17:54:41.786Z,26.59
2022-08-16T17:57:08.308Z,26.61
2022-08-16T17:59:40.924Z,26.58
2022-08-16T18:02:42.381Z,26.49
2022-08-16T18:04:55.590Z,26.29
2022-08-16T18:07:22.142Z,26.06
2022-08-16T18:09:48.641Z,26.09
2022-08-16T18:12:44.263Z,25.82
2022-08-16T18:15:08.661Z,25.91
2022-08-16T18:17:35.161Z,25.74
2022-08-16T18:20:02.237Z,25.88
2022-08-16T18:22:30.966Z,25.64
2022-08-16T18:24:58.190Z,25.83
2022-08-16T18:27:26.875Z,25.36
2022-08-16T18:29:54.078Z,25.59
2022-08-16T18:32:23.484Z,25.56
2022-08-16T18:34:52.481Z,25.61
2022-08-16T18:37:20.614Z,25.73
2022-08-16T18:39:47.078Z,25.61
2022-08-16T18:42:14.742Z,25.52
2022-08-16T18:44:42.743Z,24.99
2022-08-16T18:47:09.366Z,25.16
2022-08-16T18:49:35.982Z,25.16
2022-08-16T18:52:05.063Z,25.08
2022-08-16T18:54:33.398Z,25.20
2022-08-16T18:57:01.516Z,25.17
2022-08-16T18:59:31.108Z,25.20
2022-08-16T19:02:04.044Z,25.16
2022-08-16T19:04:56.680Z,25.03
2022-08-16T19:07:23.384Z,24.99
2022-08-16T19:09:57.786Z,24.93
2022-08-16T19:12:38.020Z,24.90
2022-08-16T19:15:11.959Z,24.78
2022-08-16T19:17:39.716Z,24.74
2022-08-16T19:20:10.517Z,24.75
2022-08-16T19:23:01.420Z,24.58
2022-08-16T19:25:46.337Z,24.57
2022-08-16T19:28:21.750Z,24.45
2022-08-16T19:30:58.291Z,24.38
2022-08-16T19:33:24.701Z,24.26
2022-08-16T19:35:51.088Z,24.32
2022-08-16T19:38:17.512Z,24.22
2022-08-16T19:40:44.081Z,24.17
2022-08-16T19:43:11.196Z,24.18
2022-08-16T19:45:41.428Z,24.15
2022-08-16T19:48:10.400Z,24.07
2022-08-16T19:50:37.097Z,24.07
2022-08-16T19:53:18.660Z,24.03
2022-08-16T19:55:47.272Z,23.93
2022-08-16T19:58:15.347Z,23.76
2022-08-16T20:00:46.920Z,23.82
2022-08-16T20:03:20.672Z,23.78
2022-08-16T20:05:48.193Z,23.77
2022-08-16T20:08:16.497Z,23.73
2022-08-16T20:10:45.173Z,23.72
2022-08-16T20:13:14.057Z,23.71
2022-08-16T20:15:41.233Z,23.67
2022-08-16T20:18:24.489Z,23.67
2022-08-16T20:20:52.496Z,23.59
2022-08-16T20:23:24.815Z,23.62
2022-08-16T20:25:53.709Z,23.62
2022-08-16T20:28:40.657Z,23.64
2022-08-16T20:31:06.546Z,23.54
2022-08-16T20:33:32.946Z,23.43
2022-08-16T20:35:59.384Z,23.45
2022-08-16T20:38:25.802Z,23.47
2022-08-16T20:40:52.277Z,23.41
2022-08-16T20:43:19.016Z,23.40
2022-08-16T20:45:46.744Z,23.43
2022-08-16T20:48:13.760Z,23.29
2022-08-16T20:50:40.665Z,23.27
2022-08-16T20:53:07.862Z,23.28
2022-08-16T20:55:36.104Z,23.30
2022-08-16T20:58:02.722Z,23.16
2022-08-16T21:00:29.428Z,23.11
2022-08-16T21:02:55.884Z,23.05
2022-08-16T21:05:25.411Z,23.05
2022-08-16T21:07:57.657Z,22.99
2022-08-16T21:10:24.201Z,23.00
2022-08-16T21:12:54.449Z,22.90
2022-08-16T21:15:22.113Z,22.74
2022-08-16T21:17:48.517Z,22.73
2022-08-16T21:20:15.492Z,22.84
2022-08-16T21:22:42.446Z,22.76
2022-08-16T21:25:12.564Z,22.69
2022-08-16T21:28:36.713Z,22.76
2022-08-16T21:30:32.421Z,22.73
2022-08-16T21:33:07.970Z,22.61
2022-08-16T21:35:34.957Z,22.66
2022-08-16T21:38:28.179Z,22.60
2022-08-16T21:40:48.173Z,22.64
2022-08-16T21:43:20.408Z,22.56
2022-08-16T21:45:47.725Z,22.59
2022-08-16T21:48:14.243Z,22.60
2022-08-16T21:50:42.115Z,22.62
2022-08-16T21:53:14.141Z,22.46
2022-08-16T21:55:42.786Z,22.49
2022-08-16T21:58:09.521Z,22.43
2022-08-16T22:00:35.991Z,22.37
2022-08-16T22:03:04.765Z,22.37
2022-08-16T22:05:32.450Z,22.30
2022-08-16T22:08:01.453Z,22.24
2022-08-16T22:11:07.768Z,22.23
2022-08-16T22:13:20.519Z,22.02
2022-08-16T22:15:47.394Z,22.22
2022-08-16T22:18:14.361Z,22.22
2022-08-16T22:20:41.450Z,22.17
2022-08-16T22:23:16.467Z,22.08
2022-08-16T22:25:45.229Z,22.07
2022-08-16T22:28:12.800Z,22.05
2022-08-16T22:30:39.975Z,22.04
2022-08-16T22:33:27.582Z,21.91
2022-08-16T22:35:59.741Z,21.95
2022-08-16T22:38:53.589Z,21.92
2022-08-16T22:41:13.933Z,21.75
2022-08-16T22:43:44.788Z,21.83
2022-08-16T22:46:11.198Z,21.78
2022-08-16T22:48:39.227Z,21.77
2022-08-16T22:51:07.757Z,21.78
2022-08-16T22:53:34.199Z,21.83
2022-08-16T22:56:04.400Z,21.84
2022-08-16T22:58:34.211Z,21.79
2022-08-16T23:01:05.682Z,21.81
2022-08-16T23:03:32.320Z,21.87
2022-08-16T23:06:01.575Z,21.78
2022-08-16T23:08:38.652Z,21.75
2022-08-16T23:11:10.942Z,21.75
2022-08-16T23:13:38.281Z,21.75
2022-08-16T23:16:21.426Z,21.73
2022-08-16T23:18:48.486Z,21.69
2022-08-16T23:21:15.381Z,21.73
2022-08-16T23:23:41.815Z,21.73
2022-08-16T23:26:46.563Z,21.70
2022-08-16T23:28:54.875Z,21.62
2022-08-16T23:31:21.267Z,21.58
2022-08-16T23:33:47.658Z,21.54
2022-08-16T23:36:14.079Z,21.54
2022-08-16T23:38:41.181Z,21.61
2022-08-16T23:41:11.505Z,21.65
2022-08-16T23:43:41.632Z,21.66
2022-08-16T23:46:11.554Z,21.65
2022-08-16T23:49:56.847Z,21.51
2022-08-16T23:51:24.377Z,21.51
2022-08-16T23:53:50.873Z,21.50
2022-08-16T23:56:20.022Z,21.47
2022-08-16T23:58:48.850Z,21.51
